Time;durP1;ratioP1;P1;durP2;ratioP2;P2;SDS_P1;SDS_P2;PMS_P1;PMS_P2;Temp;Humidity;BMP_temperature;BMP_pressure;BME280_temperature;BME280_humidity;BME280_pressure;Samples;Min_cycle;Max_cycle;Signal;HPM_P1;HPM_P2
2023/03/03 00:00:58;;;;;;;33.17;15.00;;;2.50;99.90;;;;;;5049261;28;20045;-66
2023/03/03 00:03:26;;;;;;;38.97;15.80;;;2.40;99.90;;;;;;5048585;28;20032;-66
2023/03/03 00:05:52;;;;;;;35.08;15.13;;;2.40;99.90;;;;;;5047873;28;20044;-66
2023/03/03 00:08:19;;;;;;;29.83;12.80;;;2.50;99.90;;;;;;5049282;28;20045;-66
2023/03/03 00:10:45;;;;;;;32.90;14.35;;;2.40;99.90;;;;;;5029454;28;20088;-66
2023/03/03 00:13:20;;;;;;;32.83;14.93;;;2.40;99.90;;;;;;5066892;28;20076;-66
2023/03/03 00:15:47;;;;;;;33.17;13.02;;;2.40;99.90;;;;;;5068456;28;20044;-66
2023/03/03 00:18:27;;;;;;;34.20;12.80;;;2.40;99.90;;;;;;5069084;28;20400;-66
2023/03/03 00:20:55;;;;;;;32.85;13.27;;;2.50;99.90;;;;;;5069082;28;20047;-66
2023/03/03 00:23:37;;;;;;;31.10;13.77;;;2.50;99.90;;;;;;5068755;28;20068;-66
2023/03/03 00:26:20;;;;;;;25.52;13.38;;;2.50;99.90;;;;;;5067249;28;20595;-66
2023/03/03 00:28:48;;;;;;;31.90;13.55;;;2.50;99.90;;;;;;5068295;28;20044;-65
2023/03/03 00:31:33;;;;;;;27.65;11.88;;;2.40;99.90;;;;;;5068670;28;20531;-66
2023/03/03 00:34:19;;;;;;;25.23;12.00;;;2.40;99.90;;;;;;5028083;28;20091;-66
2023/03/03 00:36:48;;;;;;;27.08;11.45;;;2.40;99.90;;;;;;5028676;28;20104;-66
2023/03/03 00:39:19;;;;;;;28.98;13.20;;;2.40;99.90;;;;;;5029042;28;20164;-66
2023/03/03 00:41:44;;;;;;;25.75;13.35;;;2.40;99.90;;;;;;5028504;28;20053;-66
2023/03/03 00:44:39;;;;;;;24.73;11.93;;;2.40;99.90;;;;;;5028224;28;20075;-66
2023/03/03 00:47:23;;;;;;;23.17;12.10;;;2.30;99.90;;;;;;5029236;28;20486;-66
2023/03/03 00:49:49;;;;;;;24.48;11.88;;;2.30;99.90;;;;;;5028842;28;20493;-66
2023/03/03 00:52:17;;;;;;;22.10;11.55;;;2.30;99.90;;;;;;5029008;28;20132;-66
2023/03/03 00:54:43;;;;;;;22.40;10.32;;;2.40;99.90;;;;;;5027518;28;20037;-66
2023/03/03 00:57:11;;;;;;;27.85;10.88;;;2.40;99.90;;;;;;5027664;28;20076;-66
2023/03/03 00:59:37;;;;;;;25.15;12.13;;;2.40;99.90;;;;;;5028377;28;20084;-66
2023/03/03 01:02:03;;;;;;;31.10;12.98;;;2.40;99.90;;;;;;5028570;28;20034;-66
2023/03/03 01:04:29;;;;;;;28.00;13.77;;;2.40;99.90;;;;;;5028514;28;20083;-66
2023/03/03 01:06:54;;;;;;;33.03;13.55;;;2.40;99.90;;;;;;5028940;28;20041;-65
2023/03/03 01:09:20;;;;;;;24.70;12.95;;;2.30;99.90;;;;;;5029097;28;20115;-66
2023/03/03 01:11:46;;;;;;;29.30;13.10;;;2.30;99.90;;;;;;5028518;28;20067;-66
2023/03/03 01:14:11;;;;;;;30.40;13.15;;;2.20;99.90;;;;;;5027580;28;20038;-66
2023/03/03 01:16:37;;;;;;;31.73;13.90;;;2.20;99.90;;;;;;5028948;28;20076;-66
2023/03/03 01:19:03;;;;;;;32.78;13.43;;;2.30;99.90;;;;;;5028214;28;20041;-66
2023/03/03 01:21:29;;;;;;;32.70;13.25;;;2.20;99.90;;;;;;5028422;28;20401;-66
2023/03/03 01:23:54;;;;;;;26.88;13.13;;;2.30;99.90;;;;;;5031902;28;20591;-66
2023/03/03 01:26:20;;;;;;;28.23;11.85;;;2.30;99.90;;;;;;5047516;28;20051;-66
2023/03/03 01:28:45;;;;;;;26.73;12.85;;;2.30;99.90;;;;;;5051692;28;20037;-66
2023/03/03 01:31:11;;;;;;;27.70;11.93;;;2.20;99.90;;;;;;5052299;28;20071;-66
2023/03/03 01:33:37;;;;;;;29.60;13.30;;;2.30;99.90;;;;;;5052333;28;20033;-66
2023/03/03 01:36:03;;;;;;;30.33;12.63;;;2.30;99.90;;;;;;5051872;28;20033;-66
2023/03/03 01:38:29;;;;;;;35.10;13.88;;;2.20;99.90;;;;;;5052522;28;20072;-66
2023/03/03 01:40:56;;;;;;;35.42;14.13;;;2.20;99.90;;;;;;5052161;28;20138;-66
2023/03/03 01:43:24;;;;;;;31.15;13.13;;;2.30;99.90;;;;;;5064441;28;20032;-66
2023/03/03 01:45:50;;;;;;;29.90;13.13;;;2.30;99.90;;;;;;5071447;28;20052;-66
2023/03/03 01:48:28;;;;;;;27.50;12.18;;;2.20;99.90;;;;;;5071891;28;20040;-66
2023/03/03 01:50:59;;;;;;;28.00;12.15;;;2.20;99.90;;;;;;5071702;28;20611;-66
2023/03/03 01:53:35;;;;;;;29.13;12.10;;;2.30;99.90;;;;;;5071385;28;20755;-66
2023/03/03 01:56:04;;;;;;;33.22;12.60;;;2.20;99.90;;;;;;5071013;28;20048;-66
2023/03/03 01:58:54;;;;;;;26.90;12.32;;;2.20;99.90;;;;;;5071683;28;20044;-66
2023/03/03 02:01:23;;;;;;;30.55;12.05;;;2.30;99.90;;;;;;5071082;28;20509;-66
2023/03/03 02:03:50;;;;;;;27.00;11.63;;;2.20;99.90;;;;;;5070937;28;20043;-66
2023/03/03 02:06:18;;;;;;;35.15;11.98;;;2.20;99.90;;;;;;5058786;28;20048;-66
2023/03/03 02:08:50;;;;;;;31.98;12.85;;;2.20;99.90;;;;;;5051515;28;20044;-66
2023/03/03 02:11:16;;;;;;;26.67;11.48;;;2.20;99.90;;;;;;5050706;28;20437;-66
2023/03/03 02:13:41;;;;;;;29.73;12.80;;;2.20;99.90;;;;;;5050549;28;20045;-65
2023/03/03 02:16:07;;;;;;;31.95;11.52;;;2.20;99.90;;;;;;5050436;28;20405;-65
2023/03/03 02:18:33;;;;;;;29.05;12.88;;;2.30;99.90;;;;;;5051009;28;20119;-66
2023/03/03 02:21:16;;;;;;;28.67;11.88;;;2.30;99.90;;;;;;5071715;28;20041;-66
2023/03/03 02:23:42;;;;;;;30.35;13.48;;;2.30;99.90;;;;;;5071118;28;20596;-66
2023/03/03 02:26:17;;;;;;;33.08;12.30;;;2.20;99.90;;;;;;5052050;28;20039;-66
2023/03/03 02:28:43;;;;;;;28.58;12.45;;;2.20;99.90;;;;;;5051070;28;20049;-66
2023/03/03 02:31:14;;;;;;;31.63;12.93;;;2.20;99.90;;;;;;5051306;28;20043;-66
2023/03/03 02:33:42;;;;;;;32.00;12.43;;;2.20;99.90;;;;;;5051519;28;20044;-66
2023/03/03 02:36:19;;;;;;;29.90;11.73;;;2.20;99.90;;;;;;5051007;28;20098;-66
2023/03/03 02:38:48;;;;;;;29.33;11.63;;;2.20;99.90;;;;;;5050359;28;20060;-66
2023/03/03 02:41:48;;;;;;;29.42;11.93;;;2.30;99.90;;;;;;5050737;28;20080;-66
2023/03/03 02:44:17;;;;;;;33.20;12.18;;;2.30;99.90;;;;;;5064179;28;20037;-66
2023/03/03 02:46:46;;;;;;;29.50;11.30;;;2.20;99.90;;;;;;5070262;28;20428;-66
2023/03/03 02:49:14;;;;;;;20.83;9.50;;;2.30;99.90;;;;;;5071502;28;20041;-66
2023/03/03 02:51:40;;;;;;;28.23;11.05;;;2.20;99.90;;;;;;5071148;28;20448;-66
2023/03/03 02:54:08;;;;;;;27.80;10.80;;;2.30;99.90;;;;;;5070615;28;20055;-66
2023/03/03 02:56:34;;;;;;;29.17;10.95;;;2.30;99.90;;;;;;5049515;28;20405;-66
2023/03/03 02:59:00;;;;;;;23.60;9.27;;;2.30;99.90;;;;;;5050408;28;20037;-66
2023/03/03 03:01:26;;;;;;;23.27;9.75;;;2.20;99.90;;;;;;5051002;28;20041;-66
2023/03/03 03:03:51;;;;;;;31.38;10.13;;;2.10;99.90;;;;;;5049555;28;20120;-66
2023/03/03 03:06:17;;;;;;;30.10;10.63;;;2.20;99.90;;;;;;5050860;28;20075;-66
2023/03/03 03:08:43;;;;;;;29.13;11.32;;;2.20;99.90;;;;;;5050581;28;20162;-66
2023/03/03 03:11:09;;;;;;;24.45;8.90;;;2.20;99.90;;;;;;5050481;28;20044;-66
2023/03/03 03:13:34;;;;;;;22.10;9.85;;;2.20;99.90;;;;;;5054204;28;20044;-66
2023/03/03 03:16:00;;;;;;;30.40;10.23;;;2.30;99.90;;;;;;5069351;28;20093;-66
2023/03/03 03:18:26;;;;;;;26.77;9.77;;;2.20;99.90;;;;;;5070273;28;20040;-66
2023/03/03 03:20:52;;;;;;;30.60;10.63;;;2.30;99.90;;;;;;5070207;28;20045;-66
2023/03/03 03:23:17;;;;;;;28.83;10.77;;;2.30;99.90;;;;;;5070769;28;20126;-66
2023/03/03 03:25:46;;;;;;;32.80;10.85;;;2.30;99.90;;;;;;5062676;28;20493;-66
2023/03/03 03:28:14;;;;;;;25.10;10.43;;;2.30;99.90;;;;;;5050545;28;20058;-66
2023/03/03 03:30:41;;;;;;;28.98;9.88;;;2.30;99.90;;;;;;5050286;28;20111;-66
2023/03/03 03:33:07;;;;;;;32.33;9.95;;;2.30;99.90;;;;;;5050668;28;20052;-66
2023/03/03 03:35:34;;;;;;;36.97;10.95;;;2.30;99.90;;;;;;5049067;28;20041;-66
2023/03/03 03:37:59;;;;;;;35.10;10.40;;;2.30;99.90;;;;;;5050243;28;20055;-66
2023/03/03 03:40:25;;;;;;;41.15;11.10;;;2.30;99.90;;;;;;5049971;28;20040;-66
2023/03/03 03:42:52;;;;;;;31.55;10.45;;;2.20;99.90;;;;;;5050103;28;20090;-66
2023/03/03 03:45:18;;;;;;;27.38;11.25;;;2.30;99.90;;;;;;5060962;28;20051;-66
2023/03/03 03:47:44;;;;;;;29.65;10.63;;;2.30;99.90;;;;;;5069961;28;20037;-66
2023/03/03 03:50:11;;;;;;;32.05;11.30;;;2.30;99.90;;;;;;5069587;28;20573;-66
2023/03/03 03:52:36;;;;;;;26.55;10.10;;;2.30;99.90;;;;;;5069875;28;20044;-66
2023/03/03 03:55:03;;;;;;;27.77;10.82;;;2.30;99.90;;;;;;5068998;28;20051;-66
2023/03/03 03:57:28;;;;;;;36.65;10.68;;;2.30;99.90;;;;;;5070095;28;20461;-66
2023/03/03 03:59:54;;;;;;;30.90;11.35;;;2.30;99.90;;;;;;5069299;28;20076;-66
2023/03/03 04:02:20;;;;;;;32.58;11.20;;;2.30;99.90;;;;;;5070069;28;20041;-66
2023/03/03 04:04:45;;;;;;;31.25;11.27;;;2.30;99.90;;;;;;5069019;28;20063;-66
2023/03/03 04:07:11;;;;;;;26.80;10.88;;;2.30;99.90;;;;;;5069840;28;20056;-66
2023/03/03 04:09:37;;;;;;;33.05;10.57;;;2.30;99.90;;;;;;5067098;28;20691;-66
2023/03/03 04:12:03;;;;;;;31.00;9.98;;;2.30;99.90;;;;;;5048966;28;20045;-66
2023/03/03 04:14:29;;;;;;;29.85;9.82;;;2.30;99.90;;;;;;5047657;28;20509;-66
2023/03/03 04:16:54;;;;;;;26.90;10.38;;;2.30;99.90;;;;;;5049087;28;20056;-66
2023/03/03 04:19:21;;;;;;;25.67;10.07;;;2.30;99.90;;;;;;5049346;28;20045;-66
2023/03/03 04:21:46;;;;;;;32.60;10.68;;;2.30;99.90;;;;;;5061580;28;20082;-66
2023/03/03 04:24:12;;;;;;;33.28;10.93;;;2.30;99.90;;;;;;5068890;28;20072;-66
2023/03/03 04:26:38;;;;;;;34.00;11.23;;;2.40;99.90;;;;;;5056190;28;20059;-66
2023/03/03 04:29:03;;;;;;;28.50;11.20;;;2.40;99.90;;;;;;5048750;28;20029;-66
2023/03/03 04:31:29;;;;;;;23.38;9.75;;;2.40;99.90;;;;;;5049208;28;20041;-66
2023/03/03 04:33:55;;;;;;;20.73;9.25;;;2.40;99.90;;;;;;5048795;28;20075;-66
2023/03/03 04:36:21;;;;;;;34.05;9.95;;;2.40;99.90;;;;;;5049155;28;20083;-66
2023/03/03 04:38:47;;;;;;;29.80;9.65;;;2.40;99.90;;;;;;5049066;28;20095;-66
2023/03/03 04:41:14;;;;;;;25.33;8.98;;;2.40;99.90;;;;;;5048783;28;20112;-66
2023/03/03 04:43:39;;;;;;;52.80;10.55;;;2.40;99.90;;;;;;5048739;28;20044;-66
2023/03/03 04:46:05;;;;;;;23.13;9.65;;;2.40;99.90;;;;;;5066734;28;20032;-66
2023/03/03 04:48:30;;;;;;;41.40;10.05;;;2.40;99.90;;;;;;5068712;28;20374;-66
2023/03/03 04:50:56;;;;;;;27.30;10.18;;;2.40;99.90;;;;;;5067712;28;20123;-66
2023/03/03 04:53:22;;;;;;;30.83;8.60;;;2.40;99.90;;;;;;5069257;28;20048;-66
2023/03/03 04:55:52;;;;;;;52.15;10.27;;;2.40;99.90;;;;;;5068612;28;20420;-66
2023/03/03 04:58:18;;;;;;;30.70;9.63;;;2.40;99.90;;;;;;5069468;28;20040;-66
2023/03/03 05:00:46;;;;;;;23.83;10.13;;;2.40;99.90;;;;;;5068525;28;20044;-66
2023/03/03 05:03:11;;;;;;;40.15;10.52;;;2.40;99.90;;;;;;5070925;28;20129;-66
2023/03/03 05:05:37;;;;;;;28.60;8.45;;;2.40;99.90;;;;;;5072202;28;20095;-66
2023/03/03 05:08:03;;;;;;;25.13;10.52;;;2.40;99.90;;;;;;5073058;28;20036;-66
2023/03/03 05:10:28;;;;;;;45.75;9.60;;;2.40;99.90;;;;;;5072505;28;20048;-66
2023/03/03 05:12:54;;;;;;;25.30;9.10;;;2.50;99.90;;;;;;5072581;28;20042;-66
2023/03/03 05:15:20;;;;;;;35.33;9.45;;;2.50;99.90;;;;;;5072258;28;20405;-66
2023/03/03 05:17:46;;;;;;;30.83;10.00;;;2.50;99.90;;;;;;5072921;28;20037;-66
2023/03/03 05:20:12;;;;;;;35.10;11.98;;;2.50;99.90;;;;;;5072708;28;20495;-66
2023/03/03 05:22:38;;;;;;;33.22;11.15;;;2.50;99.90;;;;;;5054190;28;20045;-66
2023/03/03 05:25:04;;;;;;;28.60;9.52;;;2.50;99.90;;;;;;5051437;28;20416;-66
2023/03/03 05:27:30;;;;;;;29.70;9.27;;;2.50;99.90;;;;;;5048659;28;20486;-66
2023/03/03 05:29:55;;;;;;;29.92;9.93;;;2.50;99.90;;;;;;5051112;28;20151;-66
2023/03/03 05:32:21;;;;;;;27.70;9.70;;;2.50;99.90;;;;;;5052290;28;20095;-66
2023/03/03 05:34:46;;;;;;;28.65;9.68;;;2.50;99.90;;;;;;5051844;28;20041;-66
2023/03/03 05:37:12;;;;;;;26.02;9.77;;;2.50;99.90;;;;;;5052366;28;20045;-66
2023/03/03 05:39:38;;;;;;;40.08;10.88;;;2.50;99.90;;;;;;5052520;28;20393;-66
2023/03/03 05:42:03;;;;;;;28.08;9.27;;;2.50;99.90;;;;;;5052116;28;20033;-66
2023/03/03 05:44:29;;;;;;;39.10;9.73;;;2.50;99.90;;;;;;5056724;28;20028;-66
2023/03/03 05:46:56;;;;;;;23.13;9.57;;;2.50;99.90;;;;;;5072141;28;20075;-66
2023/03/03 05:49:22;;;;;;;24.10;8.88;;;2.50;99.90;;;;;;5072358;28;20076;-66
2023/03/03 05:51:47;;;;;;;29.73;10.00;;;2.60;99.90;;;;;;5072277;28;20083;-66
2023/03/03 05:54:13;;;;;;;34.85;10.75;;;2.60;99.90;;;;;;5070518;28;20071;-66
2023/03/03 05:56:38;;;;;;;24.05;9.82;;;2.60;99.90;;;;;;5072159;28;20048;-66
2023/03/03 05:59:04;;;;;;;22.17;9.27;;;2.60;99.90;;;;;;5071761;28;20049;-66
2023/03/03 06:01:30;;;;;;;25.15;9.18;;;2.60;99.90;;;;;;5071509;28;20045;-66
2023/03/03 06:03:55;;;;;;;23.35;8.68;;;2.70;99.90;;;;;;5071947;28;20036;-66
2023/03/03 06:06:21;;;;;;;26.58;8.73;;;2.70;99.90;;;;;;5071326;28;20036;-66
2023/03/03 06:08:46;;;;;;;25.23;8.95;;;2.70;99.90;;;;;;5071695;28;20040;-66
2023/03/03 06:11:12;;;;;;;25.35;9.63;;;2.70;99.90;;;;;;5070971;28;20123;-66
2023/03/03 06:13:39;;;;;;;21.88;8.95;;;2.80;99.90;;;;;;5070425;28;20059;-66
2023/03/03 06:16:05;;;;;;;25.00;10.35;;;2.70;99.90;;;;;;5071025;28;20059;-66
2023/03/03 06:18:31;;;;;;;24.08;9.20;;;2.80;99.90;;;;;;5070669;28;20416;-66
2023/03/03 06:20:56;;;;;;;23.58;9.30;;;2.80;99.90;;;;;;5065832;28;20119;-66
2023/03/03 06:23:22;;;;;;;21.55;9.57;;;2.80;99.90;;;;;;5048949;28;20048;-66
2023/03/03 06:25:47;;;;;;;23.15;9.25;;;2.80;99.90;;;;;;5048346;28;20537;-66
2023/03/03 06:28:14;;;;;;;28.45;9.15;;;2.90;99.90;;;;;;5047334;28;20033;-66
2023/03/03 06:30:39;;;;;;;25.85;9.45;;;2.90;99.90;;;;;;5051012;28;20086;-66
2023/03/03 06:33:05;;;;;;;24.77;9.90;;;2.80;99.90;;;;;;5050518;28;20048;-65
2023/03/03 06:35:31;;;;;;;20.35;8.30;;;2.90;99.90;;;;;;5031900;28;20041;-65
2023/03/03 06:37:56;;;;;;;24.73;9.55;;;2.90;99.90;;;;;;5030717;28;20037;-66
2023/03/03 06:40:22;;;;;;;26.60;9.95;;;2.90;99.90;;;;;;5031024;28;20112;-66
2023/03/03 06:42:47;;;;;;;24.60;10.00;;;2.90;99.90;;;;;;5031278;28;20040;-66
2023/03/03 06:45:14;;;;;;;29.90;9.98;;;2.90;99.90;;;;;;5031235;28;20064;-66
2023/03/03 06:47:40;;;;;;;27.13;9.52;;;3.00;99.90;;;;;;5031336;28;20045;-66
2023/03/03 06:50:06;;;;;;;27.40;10.40;;;2.90;99.90;;;;;;5031224;28;20490;-66
2023/03/03 06:52:32;;;;;;;23.15;10.15;;;2.90;99.90;;;;;;5031472;28;20037;-66
2023/03/03 06:55:00;;;;;;;23.40;8.98;;;2.90;99.90;;;;;;5031125;28;20056;-66
2023/03/03 06:57:31;;;;;;;23.23;9.23;;;3.00;99.90;;;;;;5031285;28;20049;-66
2023/03/03 07:00:09;;;;;;;25.90;9.48;;;3.00;99.90;;;;;;5050411;28;20032;-66
2023/03/03 07:02:34;;;;;;;28.65;11.30;;;3.00;99.90;;;;;;5050048;28;20048;-66
2023/03/03 07:05:00;;;;;;;28.02;12.80;;;3.00;99.90;;;;;;5050437;28;20036;-66
2023/03/03 07:07:26;;;;;;;35.20;11.95;;;3.00;99.90;;;;;;5050062;28;20184;-65
2023/03/03 07:09:56;;;;;;;32.55;10.95;;;3.10;99.90;;;;;;5050682;28;20036;-66
2023/03/03 07:12:22;;;;;;;27.30;10.93;;;3.10;99.90;;;;;;5050126;28;20057;-66
2023/03/03 07:14:54;;;;;;;38.03;16.38;;;3.20;99.90;;;;;;5049693;28;20076;-66
2023/03/03 07:17:23;;;;;;;47.73;15.00;;;3.10;99.90;;;;;;5050355;28;20413;-65
2023/03/03 07:19:49;;;;;;;38.58;12.45;;;3.10;99.90;;;;;;5050614;28;20140;-65
2023/03/03 07:22:18;;;;;;;29.98;10.80;;;3.10;99.90;;;;;;5050842;28;20183;-66
2023/03/03 07:24:49;;;;;;;38.75;13.30;;;3.10;99.90;;;;;;5049976;28;20118;-65
2023/03/03 07:27:27;;;;;;;35.72;12.25;;;3.10;99.90;;;;;;5050586;28;20675;-66
2023/03/03 07:29:59;;;;;;;30.58;11.32;;;3.10;99.90;;;;;;5050491;28;20047;-65
2023/03/03 07:32:27;;;;;;;;;;;3.20;99.90;;;;;;5051041;28;20059;-66
2023/03/03 07:34:55;;;;;;;27.38;10.23;;;3.20;99.90;;;;;;5050157;28;20427;-66
2023/03/03 07:37:37;;;;;;;31.52;11.70;;;3.20;99.90;;;;;;5050719;28;20052;-66
2023/03/03 07:40:36;;;;;;;29.17;11.10;;;3.20;99.90;;;;;;5050468;28;20076;-66
2023/03/03 07:43:34;;;;;;;27.50;10.73;;;3.20;99.90;;;;;;5050180;28;20151;-65
2023/03/03 07:46:09;;;;;;;30.70;11.93;;;3.20;99.90;;;;;;5048608;28;20041;-65
2023/03/03 07:48:40;;;;;;;29.02;10.93;;;3.30;99.90;;;;;;5050252;28;20037;-65
2023/03/03 07:51:21;;;;;;;32.78;11.50;;;3.30;99.90;;;;;;5049013;28;20063;-65
2023/03/03 07:53:47;;;;;;;28.40;10.75;;;3.30;99.90;;;;;;5032096;28;20037;-65
2023/03/03 07:56:36;;;;;;;29.15;10.40;;;3.30;99.90;;;;;;5050220;28;20440;-65
2023/03/03 07:59:17;;;;;;;27.40;9.95;;;3.40;99.90;;;;;;5044319;28;20141;-65
2023/03/03 08:01:48;;;;;;;23.92;10.63;;;3.40;99.90;;;;;;5050280;28;20453;-66
2023/03/03 08:04:23;;;;;;;30.88;11.93;;;3.40;99.90;;;;;;5049911;28;20037;-65
2023/03/03 08:06:54;;;;;;;31.45;12.27;;;3.50;99.90;;;;;;5050004;28;20041;-65
2023/03/03 08:09:36;;;;;;;34.58;10.88;;;3.50;99.90;;;;;;5049882;28;20051;-65
2023/03/03 08:12:18;;;;;;;28.65;10.25;;;3.60;99.90;;;;;;5049889;28;20127;-66
2023/03/03 08:14:44;;;;;;;33.88;12.00;;;3.60;99.90;;;;;;5049714;28;20127;-66
2023/03/03 08:17:22;;;;;;;25.63;10.63;;;3.60;99.90;;;;;;5049945;28;20079;-66
2023/03/03 08:19:53;;;;;;;30.63;10.43;;;3.60;99.90;;;;;;5048315;28;20128;-65
2023/03/03 08:22:35;;;;;;;25.42;10.27;;;3.70;99.90;;;;;;5049840;28;20048;-65
2023/03/03 08:25:00;;;;;;;24.38;9.38;;;3.70;99.90;;;;;;5049658;28;20603;-65
2023/03/03 08:27:26;;;;;;;28.15;10.25;;;3.80;99.90;;;;;;5049956;28;20057;-68
2023/03/03 08:29:52;;;;;;;27.83;10.02;;;3.90;99.90;;;;;;5049865;28;20037;-65
2023/03/03 08:32:17;;;;;;;26.13;9.77;;;3.90;99.90;;;;;;5049629;28;20055;-66
2023/03/03 08:34:43;;;;;;;26.35;10.15;;;3.90;99.90;;;;;;5049203;28;20095;-65
2023/03/03 08:37:08;;;;;;;25.48;8.70;;;3.90;99.90;;;;;;5046565;28;20040;-65
2023/03/03 08:39:34;;;;;;;27.38;8.95;;;4.00;99.90;;;;;;5047537;28;20287;-66
2023/03/03 08:42:00;;;;;;;26.63;10.20;;;4.00;99.90;;;;;;5048896;28;20038;-65
2023/03/03 08:44:25;;;;;;;22.48;9.68;;;4.00;99.90;;;;;;5045822;28;20120;-65
2023/03/03 08:46:51;;;;;;;20.13;8.95;;;4.00;99.90;;;;;;5038105;28;20467;-64
2023/03/03 08:49:17;;;;;;;22.70;8.73;;;4.00;99.90;;;;;;5042744;28;20033;-66
2023/03/03 08:51:42;;;;;;;20.10;9.18;;;4.00;99.90;;;;;;5049112;28;20053;-65
2023/03/03 08:54:08;;;;;;;20.27;7.82;;;4.10;99.90;;;;;;5047876;28;20048;-65
2023/03/03 08:56:33;;;;;;;19.48;7.65;;;4.00;99.90;;;;;;5048461;28;20695;-66
2023/03/03 08:58:59;;;;;;;21.95;8.10;;;4.00;99.90;;;;;;5049021;28;20044;-65
2023/03/03 09:01:25;;;;;;;19.90;8.50;;;4.00;99.90;;;;;;5048735;28;20114;-65
2023/03/03 09:03:50;;;;;;;17.88;7.40;;;4.10;99.90;;;;;;5040382;28;20057;-66
2023/03/03 09:06:16;;;;;;;22.98;8.18;;;4.10;99.90;;;;;;5042446;28;20099;-65
2023/03/03 09:08:41;;;;;;;19.73;7.00;;;4.20;99.90;;;;;;5044303;28;20065;-65
2023/03/03 09:11:12;;;;;;;16.38;7.47;;;4.30;99.90;;;;;;5044765;28;20099;-65
2023/03/03 09:13:38;;;;;;;20.02;8.45;;;4.30;99.90;;;;;;5046152;28;20075;-65
2023/03/03 09:16:14;;;;;;;19.83;8.50;;;4.40;99.90;;;;;;5048260;28;20043;-66
2023/03/03 09:18:41;;;;;;;17.27;7.35;;;4.50;99.90;;;;;;5057983;28;20045;-65
2023/03/03 09:21:36;;;;;;;15.45;7.40;;;4.50;99.90;;;;;;5048746;28;20116;-65
2023/03/03 09:24:01;;;;;;;26.50;9.30;;;4.40;99.90;;;;;;5022767;28;20060;-65
2023/03/03 09:26:34;;;;;;;21.67;7.45;;;4.40;99.90;;;;;;5026039;28;20809;-65
2023/03/03 09:29:15;;;;;;;19.23;7.93;;;4.40;99.90;;;;;;5009264;28;20124;-65
2023/03/03 09:31:40;;;;;;;22.13;7.97;;;4.60;99.90;;;;;;5005874;28;20136;-65
2023/03/03 09:34:38;;;;;;;17.67;8.07;;;4.60;99.90;;;;;;5005213;28;20141;-65
2023/03/03 09:37:27;;;;;;;20.67;7.72;;;4.60;99.90;;;;;;5002786;28;20038;-65
2023/03/03 09:39:56;;;;;;;16.30;6.82;;;4.80;99.90;;;;;;5005019;28;20131;-65
2023/03/03 09:42:41;;;;;;;16.13;7.22;;;4.80;99.90;;;;;;4996730;28;20490;-65
2023/03/03 09:45:21;;;;;;;15.68;7.50;;;4.90;99.90;;;;;;5004778;28;20452;-65
2023/03/03 09:47:55;;;;;;;22.27;7.80;;;4.90;99.90;;;;;;5008050;28;20056;-66
2023/03/03 09:50:33;;;;;;;16.35;7.13;;;5.00;99.90;;;;;;4989498;28;20574;-65
2023/03/03 09:53:24;;;;;;;16.23;6.38;;;5.00;99.90;;;;;;4989295;28;20074;-65
2023/03/03 09:55:59;;;;;;;17.10;7.68;;;5.10;99.90;;;;;;4985744;28;20054;-65
2023/03/03 09:58:52;;;;;;;13.55;6.85;;;5.20;99.90;;;;;;4989885;28;20456;-65
2023/03/03 10:01:41;;;;;;;14.30;6.72;;;5.30;99.90;;;;;;5025558;28;20168;-66
2023/03/03 10:04:27;;;;;;;19.75;7.90;;;5.30;99.90;;;;;;5032063;28;20372;-65
2023/03/03 10:07:17;;;;;;;16.92;8.15;;;5.30;99.90;;;;;;5032240;28;20041;-66
2023/03/03 10:10:04;;;;;;;12.85;6.28;;;5.30;99.90;;;;;;5032032;28;20049;-66
2023/03/03 10:12:45;;;;;;;18.35;7.75;;;5.40;99.90;;;;;;5031832;28;20049;-64
2023/03/03 10:15:29;;;;;;;12.68;5.38;;;5.40;99.90;;;;;;5031585;28;20080;-68
2023/03/03 10:18:13;;;;;;;14.18;6.65;;;5.40;99.90;;;;;;5031808;28;20072;-64
2023/03/03 10:21:14;;;;;;;11.00;5.78;;;5.40;99.90;;;;;;5031807;28;20049;-65
2023/03/03 10:24:06;;;;;;;11.10;6.35;;;5.40;99.90;;;;;;5031845;28;20094;-65
2023/03/03 10:27:00;;;;;;;13.68;6.75;;;5.40;99.90;;;;;;5031604;28;20124;-65
2023/03/03 10:29:35;;;;;;;11.52;6.20;;;5.40;99.90;;;;;;5031817;28;20049;-67
2023/03/03 10:32:17;;;;;;;12.23;6.93;;;5.40;99.90;;;;;;5031837;28;20120;-67
2023/03/03 10:35:15;;;;;;;16.50;8.13;;;5.40;99.90;;;;;;5030502;28;20440;-67
2023/03/03 10:37:49;;;;;;;31.70;14.27;;;5.50;99.90;;;;;;5031818;28;20124;-66
2023/03/03 10:40:42;;;;;;;27.48;9.13;;;5.40;99.90;;;;;;5030777;28;20161;-66
2023/03/03 10:43:54;;;;;;;16.15;7.78;;;5.40;99.90;;;;;;5030908;28;20124;-65
2023/03/03 10:47:03;;;;;;;19.13;7.40;;;5.40;99.90;;;;;;4969003;28;20066;-66
2023/03/03 10:49:53;;;;;;;21.33;9.23;;;5.50;99.90;;;;;;4990839;28;20621;-65
2023/03/03 10:52:44;;;;;;;20.85;8.20;;;5.60;99.90;;;;;;4987608;28;20039;-65
2023/03/03 10:55:25;;;;;;;14.93;7.38;;;5.60;99.90;;;;;;4988301;28;20475;-66
2023/03/03 10:58:12;;;;;;;19.98;9.48;;;5.60;99.90;;;;;;4989378;28;20069;-66
2023/03/03 11:01:07;;;;;;;26.88;11.35;;;5.60;99.90;;;;;;4979178;28;20038;-65
2023/03/03 11:03:54;;;;;;;22.83;10.68;;;5.70;99.90;;;;;;4979729;28;20078;-65
2023/03/03 11:06:49;;;;;;;18.65;8.32;;;5.70;99.90;;;;;;4986714;28;20050;-66
2023/03/03 11:09:18;;;;;;;27.13;7.32;;;5.70;99.90;;;;;;4988996;28;20058;-65
2023/03/03 11:12:17;;;;;;;13.35;7.40;;;5.70;99.90;;;;;;4988903;28;20042;-66
2023/03/03 11:15:01;;;;;;;21.95;8.02;;;5.80;99.90;;;;;;4988277;28;20559;-65
2023/03/03 11:17:51;;;;;;;15.63;7.68;;;5.80;99.90;;;;;;4988257;28;20108;-65
2023/03/03 11:20:37;;;;;;;20.95;9.13;;;5.80;99.90;;;;;;4988793;28;20593;-65
2023/03/03 11:23:14;;;;;;;19.48;8.27;;;5.90;99.90;;;;;;5030843;28;20562;-65
2023/03/03 11:26:07;;;;;;;16.98;7.45;;;5.90;99.90;;;;;;5012515;28;20697;-65
2023/03/03 11:28:39;;;;;;;22.10;10.13;;;6.00;99.90;;;;;;5030815;28;20052;-65
2023/03/03 11:31:35;;;;;;;20.65;10.75;;;6.00;99.90;;;;;;5030344;28;20140;-65
2023/03/03 11:34:20;;;;;;;18.77;7.90;;;6.00;99.90;;;;;;5030416;28;20061;-66
2023/03/03 11:36:56;;;;;;;14.73;8.20;;;6.00;99.90;;;;;;5031031;28;20049;-65
2023/03/03 11:39:27;;;;;;;13.35;6.28;;;6.10;99.90;;;;;;5048715;28;20040;-65
2023/03/03 11:42:01;;;;;;;9.90;5.85;;;6.10;99.90;;;;;;5029421;28;20048;-66
2023/03/03 11:44:46;;;;;;;12.27;6.55;;;6.20;99.90;;;;;;5029658;28;20041;-65
2023/03/03 11:47:24;;;;;;;14.25;6.78;;;6.20;99.90;;;;;;5030537;28;20056;-65
2023/03/03 11:50:13;;;;;;;13.20;6.57;;;6.20;99.90;;;;;;5046640;28;20116;-65
2023/03/03 11:53:03;;;;;;;14.15;6.93;;;6.20;99.90;;;;;;5040851;28;20064;-64
2023/03/03 11:55:36;;;;;;;12.57;5.78;;;6.30;99.90;;;;;;5047021;28;20528;-66
2023/03/03 11:58:20;;;;;;;10.15;5.88;;;6.40;99.90;;;;;;5050055;28;20052;-67
2023/03/03 12:01:17;;;;;;;9.30;4.82;;;6.50;99.90;;;;;;5049155;28;20505;-67
2023/03/03 12:03:46;;;;;;;10.50;5.32;;;6.50;99.90;;;;;;5049812;28;20738;-66
2023/03/03 12:06:33;;;;;;;10.18;4.78;;;6.50;99.90;;;;;;5049821;28;20565;-66
2023/03/03 12:09:08;;;;;;;9.32;4.60;;;6.60;99.90;;;;;;5050006;28;20045;-67
2023/03/03 12:11:59;;;;;;;10.93;4.97;;;6.70;99.90;;;;;;5049498;28;20513;-67
2023/03/03 12:15:03;;;;;;;8.30;4.60;;;6.80;99.90;;;;;;5049663;28;20052;-67
2023/03/03 12:18:03;;;;;;;8.15;4.60;;;6.70;99.90;;;;;;5050117;28;20440;-66
2023/03/03 12:20:47;;;;;;;6.72;4.40;;;6.70;99.90;;;;;;5027504;28;20493;-66
2023/03/03 12:23:44;;;;;;;8.73;5.07;;;6.80;99.90;;;;;;5049893;28;20102;-66
2023/03/03 12:26:44;;;;;;;12.52;5.10;;;6.90;99.90;;;;;;5049571;28;20045;-66
2023/03/03 12:29:25;;;;;;;12.35;5.57;;;7.10;99.90;;;;;;5049398;28;20106;-67
2023/03/03 12:31:56;;;;;;;10.30;6.05;;;7.00;99.90;;;;;;5049206;28;20048;-67
2023/03/03 12:34:40;;;;;;;9.88;5.70;;;7.10;99.90;;;;;;5049224;28;20045;-66
2023/03/03 12:37:33;;;;;;;9.02;3.80;;;7.10;99.90;;;;;;5049125;28;20048;-66
2023/03/03 12:40:16;;;;;;;7.30;3.88;;;7.10;99.90;;;;;;5048829;28;20044;-66
2023/03/03 12:42:47;;;;;;;;;;;7.30;99.90;;;;;;5049809;28;20060;-66
2023/03/03 12:45:35;;;;;;;16.38;6.38;;;7.20;99.90;;;;;;5046026;28;19920;-65
2023/03/03 12:48:20;;;;;;;11.02;4.50;;;7.30;99.90;;;;;;5044046;28;20041;-65
2023/03/03 12:51:20;;;;;;;4.65;2.97;;;7.20;99.90;;;;;;5038993;28;20065;-66
2023/03/03 12:53:58;;;;;;;6.55;3.00;;;7.20;99.90;;;;;;5013582;28;20095;-65
2023/03/03 12:56:39;;;;;;;5.63;2.90;;;7.30;99.90;;;;;;5037800;28;20501;-66
2023/03/03 12:59:36;;;;;;;4.13;2.58;;;7.20;99.90;;;;;;5038815;28;20096;-66
2023/03/03 13:02:24;;;;;;;4.13;2.05;;;7.30;99.90;;;;;;5013323;28;20041;-66
2023/03/03 13:05:26;;;;;;;4.95;2.20;;;7.40;99.90;;;;;;5038528;28;20041;-65
2023/03/03 13:08:21;;;;;;;2.88;1.85;;;7.30;99.90;;;;;;5039504;28;20071;-65
2023/03/03 13:11:03;;;;;;;3.05;2.00;;;7.40;99.90;;;;;;5037830;28;20060;-66
2023/03/03 13:13:57;;;;;;;3.78;1.92;;;7.40;99.90;;;;;;5048862;28;20528;-66